Startpagina
METAR-TAF:

METAR-TAF

Vliegvelden :

Luchthaven Haneda

Tokio-Haneda, Japan

breedte: 35-33N, lengte: 139-47E, hoogte: 5 m

Actueel weer

Dit bericht is 26 minuten geleden gemaakt, om 17:30 UTC
Wind 9 kt uit het zuidzuidwesten
Temperatuur 28°C
Vochtigheid 84%
Druk 1009 hPa
Zicht 10 km of meer
Weinig wolken op 800 ft

METAR: RJTT 181730Z 20009KT 9999 FEW008 28/25 Q1009 NOSIG RMK 1ST008 A2982

Tijdstip: 02:56 (17:56 UTC)

Verwachting

Dit bericht is 50 minuten geleden gemaakt, om 17:06 UTC
Verwachting geldig van 18 om 18 UTC tot 20 om 00 UTC
Wind 11 kt uit het zuiden
Zicht 10 km of meer
Weinig wolken op 1500 ft

TAF: RJTT 181706Z 1818/2000 17011KT 9999 FEW015

Waarnemingen en weersverwachtingen van meer dan 4000 vliegvelden (METAR en TAF).

De beschikbare stations zijn de gele en rode punten op de kaart.

Ga met uw muis naar het station om de naam te zien.

Klik dan om waarnemingen en weersverwachtingen te zien.

kaart wijzigen: klik op de groene knoppen met een zwart kruis om in te zoomen, op de groene knop met een streepje om uit te zoomen of op de groene pijlen voor aangrenzende kaarten.


METAR-TAF: